Audubon, New Jersey
Current Conditions -  °F | °C
As of 10:54 PM on Wednesday 22 Oct 2014 (Local Time) from KPHL Reporting Station
Light Rain Light Rain  
Wind Chill: 12°   Ceiling: 5500
Heat Index: 12°   Visibility: 9mi
Dew Point:   Wind: 17mph
Humidity: 83%   Direction: 320°NW
Pressure: 29.8"   Gusts: 26mph
Location:  39.89°N, 75.09°W
Report Text: KPHL 230254Z 32015G23KT 9SM -RA SCT046 BKN055 OVC065 12/09 A2980 RMK AO2 SLP091 P0000 60007 T01170089 58015 $
Loading
Personal Weather Stations






























Interactive Weather Map
Tropical Storm Tracking
New forecast layout! Learn more

10-Day Weather Forecast

Advertisements
Track Severe Weather on mobile